Time;durP1;ratioP1;P1;durP2;ratioP2;P2;SDS_P1;SDS_P2;PMS_P1;PMS_P2;Temp;Humidity;BMP_temperature;BMP_pressure;BME280_temperature;BME280_humidity;BME280_pressure;Samples;Min_cycle;Max_cycle;Signal;HPM_P1;HPM_P2
2023/03/26 00:01:26;;;;;;;10.55;9.55;;;;;;;16.15;63.60;98737.38;4973788;28;20597;-77
2023/03/26 00:03:56;;;;;;;10.82;9.82;;;;;;;15.97;63.69;98705.56;4974365;28;20162;-76
2023/03/26 00:06:35;;;;;;;11.23;10.05;;;;;;;15.97;63.99;98705.56;4989054;28;20518;-76
2023/03/26 00:09:01;;;;;;;11.35;10.25;;;;;;;15.68;63.66;98675.38;4973726;28;20396;-77
2023/03/26 00:11:27;;;;;;;11.70;10.60;;;;;;;15.91;63.46;98719.00;4973793;28;20046;-77
2023/03/26 00:13:57;;;;;;;12.65;11.43;;;;;;;16.08;64.03;98765.19;4974052;28;20027;-77
2023/03/26 00:16:27;;;;;;;14.48;12.73;;;;;;;15.45;63.58;98686.78;4973752;28;20027;-77
2023/03/26 00:18:53;;;;;;;17.60;14.80;;;;;;;15.54;64.17;98717.31;4972447;28;20026;-77
2023/03/26 00:21:21;;;;;;;15.80;13.55;;;;;;;15.86;63.96;98765.75;4973495;28;20082;-77
2023/03/26 00:23:48;;;;;;;16.20;14.50;;;;;;;15.99;64.33;98779.88;4973701;28;20110;-77
2023/03/26 00:26:16;;;;;;;15.48;13.77;;;;;;;15.79;64.32;98757.06;5004689;28;20022;-77
2023/03/26 00:28:42;;;;;;;16.25;14.55;;;;;;;15.93;64.46;98802.91;4973449;28;20431;-77
2023/03/26 00:31:11;;;;;;;14.00;12.60;;;;;;;15.54;64.49;98730.63;4973469;28;20020;-77
2023/03/26 00:33:39;;;;;;;17.13;14.00;;;;;;;15.88;64.31;98766.34;4973479;28;20035;-77
2023/03/26 00:36:15;;;;;;;15.52;13.63;;;;;;;15.86;64.84;98763.09;5005047;28;20108;-77
2023/03/26 00:38:41;;;;;;;16.05;13.95;;;;;;;15.23;64.77;98664.44;4973479;28;20093;-77
2023/03/26 00:41:16;;;;;;;16.55;14.93;;;;;;;15.73;64.61;98749.22;4973198;28;20082;-77
2023/03/26 00:43:45;;;;;;;17.60;15.38;;;;;;;15.79;64.48;98746.44;4972020;28;20023;-77
2023/03/26 00:46:11;;;;;;;17.00;14.50;;;;;;;15.74;64.85;98759.63;4971929;28;20027;-77
2023/03/26 00:48:38;;;;;;;18.35;16.42;;;;;;;15.31;65.32;98695.19;4973169;28;20058;-77
2023/03/26 00:51:05;;;;;;;17.48;15.65;;;;;;;15.48;65.47;98723.56;4972941;28;20026;-77
2023/03/26 00:53:32;;;;;;;17.00;15.30;;;;;;;15.18;65.31;98683.72;4972858;28;20100;-77
2023/03/26 00:55:59;;;;;;;17.35;15.48;;;;;;;15.16;64.93;98691.13;4972967;28;20098;-77
2023/03/26 00:58:26;;;;;;;17.92;16.10;;;;;;;15.08;65.01;98693.31;4972992;28;20599;-77
2023/03/26 01:00:58;;;;;;;20.13;18.13;;;;;;;15.25;64.79;98715.53;4972808;28;20043;-77
2023/03/26 01:03:28;;;;;;;17.80;15.07;;;;;;;15.62;64.93;98772.09;4971763;28;20022;-77
2023/03/26 01:06:21;;;;;;;17.08;14.73;;;;;;;15.42;64.85;98753.72;4973022;28;20508;-77
2023/03/26 01:08:49;;;;;;;14.40;13.00;;;;;;;15.54;64.66;98783.84;4972559;28;20039;-78
2023/03/26 01:11:28;;;;;;;15.30;13.68;;;;;;;15.53;64.91;98771.56;4972733;28;20421;-77
2023/03/26 01:13:58;;;;;;;15.77;14.18;;;;;;;15.51;64.88;98768.31;4972795;28;20062;-77
2023/03/26 01:16:36;;;;;;;15.63;14.13;;;;;;;15.45;65.09;98758.59;4972733;28;20046;-77
2023/03/26 01:19:04;;;;;;;16.30;14.70;;;;;;;14.76;64.72;98647.53;4972690;28;20046;-77
2023/03/26 01:21:30;;;;;;;17.60;15.18;;;;;;;15.44;65.05;98780.91;4972532;28;20041;-77
2023/03/26 01:24:04;;;;;;;15.77;13.93;;;;;;;15.43;64.52;98789.94;4972577;28;20027;-78
2023/03/26 01:26:32;;;;;;;15.30;13.73;;;;;;;15.39;64.89;98782.63;4972747;28;20097;-77
2023/03/26 01:29:00;;;;;;;13.95;12.55;;;;;;;14.98;64.72;98755.00;4972773;28;20491;-77
2023/03/26 01:31:35;;;;;;;13.60;12.18;;;;;;;15.13;64.52;98783.84;4972536;28;20030;-78
2023/03/26 01:34:23;;;;;;;13.73;12.27;;;;;;;15.04;64.76;98775.38;4972513;28;20496;-77
2023/03/26 01:36:49;;;;;;;13.60;12.20;;;;;;;15.00;64.50;98779.50;5003668;28;20419;-78
2023/03/26 01:39:29;;;;;;;12.63;11.40;;;;;;;14.97;64.57;98792.44;4972335;28;20027;-77
2023/03/26 01:42:18;;;;;;;11.23;9.90;;;;;;;14.38;64.00;98727.50;4972562;28;20065;-77
2023/03/26 01:44:54;;;;;;;10.88;9.88;;;;;;;14.50;64.11;98785.00;4972624;28;20027;-77
2023/03/26 01:47:20;;;;;;;14.45;11.32;;;;;;;14.59;64.02;98804.94;4972456;28;20077;-77
2023/03/26 01:49:47;;;;;;;15.02;11.70;;;;;;;14.37;63.94;98787.78;4972435;28;20026;-78
2023/03/26 01:52:18;;;;;;;11.18;10.05;;;;;;;14.39;64.16;98804.31;4972385;28;20541;-77
2023/03/26 01:54:45;;;;;;;11.35;10.15;;;;;;;14.33;64.01;98818.47;4972434;28;20037;-77
2023/03/26 01:57:35;;;;;;;11.75;10.65;;;;;;;14.32;64.12;98806.22;4972386;28;20081;-77
2023/03/26 02:00:15;;;;;;;11.02;9.93;;;;;;;14.27;64.10;98811.38;4972159;28;20071;-77
2023/03/26 02:02:41;;;;;;;10.50;9.48;;;;;;;14.32;64.00;98816.84;4972230;28;20023;-77
2023/03/26 02:05:28;;;;;;;11.60;10.40;;;;;;;14.33;64.01;98823.78;4972256;28;20034;-77
2023/03/26 02:08:12;;;;;;;11.50;9.88;;;;;;;14.35;63.95;98805.78;5003259;28;20480;-77
2023/03/26 02:10:48;;;;;;;12.70;10.95;;;;;;;14.36;63.81;98804.75;4972167;28;20038;-77
2023/03/26 02:13:14;;;;;;;11.18;10.07;;;;;;;14.44;63.51;98809.78;4972049;28;20035;-77
2023/03/26 02:15:39;;;;;;;12.75;11.20;;;;;;;13.86;63.77;98719.06;4972156;28;20150;-77
2023/03/26 02:18:09;;;;;;;12.88;11.48;;;;;;;14.16;63.98;98794.31;4972285;28;20031;-77
2023/03/26 02:20:35;;;;;;;13.68;12.27;;;;;;;13.87;63.90;98733.94;4972493;28;20078;-77
2023/03/26 02:23:00;;;;;;;14.82;13.32;;;;;;;14.33;64.04;98807.84;4975834;28;20437;-77
2023/03/26 02:25:26;;;;;;;14.40;12.93;;;;;;;14.44;64.09;98827.56;4975740;28;20500;-77
2023/03/26 02:27:52;;;;;;;14.98;13.32;;;;;;;14.45;64.20;98840.63;4975861;28;20034;-77
2023/03/26 02:30:24;;;;;;;13.18;11.88;;;;;;;14.28;64.10;98813.81;4975624;28;20507;-77
2023/03/26 02:32:51;;;;;;;12.90;11.48;;;;;;;14.07;64.43;98792.94;4975565;28;20023;-77
2023/03/26 02:35:16;;;;;;;13.05;11.75;;;;;;;13.95;64.64;98774.28;4975719;28;20030;-77
2023/03/26 02:37:45;;;;;;;14.40;12.88;;;;;;;14.05;64.41;98796.84;4975581;28;20102;-77
2023/03/26 02:40:11;;;;;;;13.20;11.95;;;;;;;14.53;64.62;98858.94;4975346;28;20415;-77
2023/03/26 02:42:37;;;;;;;13.40;12.00;;;;;;;14.28;64.72;98818.31;4975225;28;20022;-77
2023/03/26 02:45:04;;;;;;;16.13;13.77;;;;;;;14.66;64.56;98878.44;4975482;28;20027;-77
2023/03/26 02:47:30;;;;;;;14.40;12.80;;;;;;;14.66;64.52;98867.81;4975599;28;20062;-77
2023/03/26 02:49:55;;;;;;;14.18;12.77;;;;;;;14.13;65.02;98789.47;4990228;28;20106;-77
2023/03/26 02:52:21;;;;;;;14.65;13.18;;;;;;;14.19;65.19;98801.84;4975161;28;20500;-78
2023/03/26 02:54:46;;;;;;;15.15;13.65;;;;;;;14.61;64.87;98855.19;4975275;28;20027;-77
2023/03/26 02:57:12;;;;;;;14.23;12.93;;;;;;;14.48;65.16;98826.09;4975136;28;20090;-77
2023/03/26 02:59:37;;;;;;;15.15;12.90;;;;;;;14.85;64.95;98882.72;4974861;28;20500;-78
2023/03/26 03:02:03;;;;;;;14.15;12.38;;;;;;;14.38;64.94;98805.34;4989849;28;20126;-77
2023/03/26 03:04:28;;;;;;;14.13;12.77;;;;;;;14.46;65.17;98834.28;4974917;28;20031;-78
2023/03/26 03:06:56;;;;;;;14.57;13.18;;;;;;;14.84;65.20;98867.81;4975072;28;20027;-77
2023/03/26 03:09:23;;;;;;;15.57;14.10;;;;;;;14.99;65.18;98881.56;4974983;28;20033;-77
2023/03/26 03:11:51;;;;;;;18.10;16.25;;;;;;;14.90;65.34;98882.91;4974942;28;20023;-78
2023/03/26 03:14:17;;;;;;;17.40;15.52;;;;;;;14.94;65.26;98886.72;4974901;28;20026;-77
2023/03/26 03:16:42;;;;;;;15.50;14.10;;;;;;;14.73;65.09;98864.03;4974984;28;20474;-78
2023/03/26 03:19:08;;;;;;;15.23;13.63;;;;;;;14.91;65.00;98879.19;4974837;28;20041;-77
2023/03/26 03:21:33;;;;;;;15.55;13.95;;;;;;;14.94;64.75;98882.22;4989684;28;20030;-78
2023/03/26 03:23:59;;;;;;;13.02;11.73;;;;;;;14.52;64.71;98820.13;4974844;28;20420;-77
2023/03/26 03:26:28;;;;;;;12.88;11.55;;;;;;;15.05;64.34;98888.66;4974560;28;20176;-78
2023/03/26 03:28:56;;;;;;;14.90;13.50;;;;;;;15.06;63.99;98884.94;4974448;28;20023;-77
2023/03/26 03:31:23;;;;;;;14.30;12.82;;;;;;;15.09;64.19;98886.34;4974106;28;20026;-77
2023/03/26 03:33:49;;;;;;;13.60;12.18;;;;;;;14.70;63.54;98815.84;4974485;28;20023;-77
2023/03/26 03:36:17;;;;;;;15.75;14.32;;;;;;;15.12;63.85;98884.06;4974343;28;20117;-77
2023/03/26 03:38:43;;;;;;;16.70;14.90;;;;;;;15.06;64.52;98892.94;4974075;28;20039;-77
2023/03/26 03:41:09;;;;;;;18.50;16.80;;;;;;;14.53;64.67;98821.75;4974247;28;20063;-77
2023/03/26 03:43:34;;;;;;;19.13;17.33;;;;;;;14.86;65.09;98887.00;4974366;28;20058;-77
2023/03/26 03:46:00;;;;;;;19.73;17.20;;;;;;;14.11;65.29;98799.44;4974328;28;20037;-77
2023/03/26 03:48:27;;;;;;;18.33;16.52;;;;;;;14.75;65.14;98901.03;4974272;28;20101;-77
2023/03/26 03:50:54;;;;;;;18.45;16.60;;;;;;;14.23;65.70;98837.56;4974221;28;20446;-77
2023/03/26 03:53:20;;;;;;;18.42;16.65;;;;;;;14.67;65.50;98896.81;4973908;28;20038;-77
2023/03/26 03:55:54;;;;;;;17.30;15.55;;;;;;;14.27;65.51;98833.44;4972857;28;20026;-77
2023/03/26 03:58:27;;;;;;;15.38;13.88;;;;;;;14.67;65.38;98896.00;4974080;28;20031;-77
2023/03/26 04:00:59;;;;;;;14.82;13.43;;;;;;;14.58;64.87;98885.66;4973854;28;20129;-77
2023/03/26 04:03:26;;;;;;;14.77;13.38;;;;;;;14.28;64.72;98835.06;4973962;28;20082;-77
2023/03/26 04:05:53;;;;;;;15.05;13.57;;;;;;;14.38;64.33;98854.97;4972802;28;20022;-77
2023/03/26 04:08:22;;;;;;;14.07;12.77;;;;;;;14.80;64.53;98906.50;4972547;28;20411;-77
2023/03/26 04:10:48;;;;;;;13.30;12.02;;;;;;;14.51;64.06;98852.22;4972529;28;20134;-78
2023/03/26 04:13:14;;;;;;;14.38;12.88;;;;;;;14.47;63.75;98859.00;4972374;28;20027;-77
2023/03/26 04:15:41;;;;;;;13.77;12.35;;;;;;;14.32;63.58;98832.78;4973847;28;20110;-77
2023/03/26 04:18:09;;;;;;;12.43;11.30;;;;;;;14.61;63.15;98874.59;5004951;28;20035;-77
2023/03/26 04:20:45;;;;;;;10.38;9.48;;;;;;;14.37;62.58;98840.06;4973855;28;20026;-78
2023/03/26 04:23:13;;;;;;;9.60;8.55;;;;;;;14.85;61.93;98915.41;4973558;28;20089;-77
2023/03/26 04:25:42;;;;;;;8.75;7.47;;;;;;;14.56;61.51;98873.63;4973476;28;20019;-77
2023/03/26 04:28:08;;;;;;;13.15;6.60;;;;;;;14.07;60.82;98792.13;4973386;28;20034;-77
2023/03/26 04:30:33;;;;;;;6.75;6.05;;;;;;;13.93;60.56;98780.84;4973401;28;20026;-77
2023/03/26 04:33:02;;;;;;;7.32;6.35;;;;;;;14.31;60.12;98844.41;4973538;28;20030;-77
2023/03/26 04:35:33;;;;;;;6.88;5.82;;;;;;;14.51;59.72;98887.56;4988307;28;20030;-77
2023/03/26 04:37:59;;;;;;;7.85;6.40;;;;;;;14.65;59.18;98946.69;4973305;28;20499;-77
2023/03/26 04:40:25;;;;;;;6.72;5.78;;;;;;;14.39;59.29;98891.94;4973156;28;20049;-77
2023/03/26 04:42:53;;;;;;;6.10;5.60;;;;;;;14.20;59.13;98864.53;4988040;28;20490;-77
2023/03/26 04:45:21;;;;;;;5.97;5.05;;;;;;;14.45;58.70;98909.69;4972628;28;20392;-77
2023/03/26 04:47:47;;;;;;;5.72;4.43;;;;;;;14.34;58.29;98889.13;4972863;28;20038;-78
2023/03/26 04:50:13;;;;;;;4.38;3.60;;;;;;;14.13;57.77;98855.81;4973015;28;20025;-77
2023/03/26 04:52:39;;;;;;;4.55;3.38;;;;;;;14.24;57.10;98870.22;4972991;28;20618;-77
2023/03/26 04:55:12;;;;;;;2.90;2.67;;;;;;;14.71;56.35;98952.97;4973063;28;20105;-77
2023/03/26 04:57:44;;;;;;;3.13;2.83;;;;;;;14.73;56.34;98951.72;4972888;28;20102;-77
2023/03/26 05:00:14;;;;;;;3.60;2.83;;;;;;;14.72;56.11;98952.75;4972732;28;20053;-77
2023/03/26 05:02:41;;;;;;;4.00;2.47;;;;;;;13.83;55.54;98821.13;4972967;28;20023;-77
2023/03/26 05:05:07;;;;;;;2.97;2.30;;;;;;;14.52;55.41;98931.69;5004231;28;20109;-78
2023/03/26 05:07:33;;;;;;;2.70;1.70;;;;;;;14.54;55.01;98947.41;4972668;28;20117;-77
2023/03/26 05:10:00;;;;;;;2.13;1.60;;;;;;;14.27;54.97;98910.44;4972776;28;20105;-78
2023/03/26 05:12:26;;;;;;;2.10;1.48;;;;;;;14.48;54.89;98954.41;4972704;28;20030;-77
2023/03/26 05:14:51;;;;;;;1.98;1.35;;;;;;;14.36;54.63;98936.72;4972746;28;20038;-78
2023/03/26 05:17:17;;;;;;;2.63;1.70;;;;;;;13.86;54.24;98867.66;4972918;28;20139;-77
2023/03/26 05:19:43;;;;;;;3.38;1.55;;;;;;;14.56;53.83;98972.72;4972720;28;20031;-77
2023/03/26 05:22:09;;;;;;;2.65;1.33;;;;;;;13.91;53.80;98871.28;5003987;28;20031;-77
2023/03/26 05:24:34;;;;;;;2.58;1.80;;;;;;;14.21;53.46;98918.44;4987539;28;20030;-77
2023/03/26 05:27:00;;;;;;;1.52;1.30;;;;;;;14.84;53.76;99004.16;4972707;28;20091;-77
2023/03/26 05:29:25;;;;;;;2.67;1.70;;;;;;;14.89;53.50;99019.47;4972470;28;20033;-77
2023/03/26 05:31:51;;;;;;;1.90;1.30;;;;;;;14.96;52.79;99020.25;4972356;28;20026;-77
2023/03/26 05:34:19;;;;;;;2.42;1.30;;;;;;;14.94;52.97;99019.66;4972437;28;20030;-77
2023/03/26 05:36:44;;;;;;;1.98;1.75;;;;;;;14.37;52.97;98925.06;4972745;28;20421;-77
2023/03/26 05:39:11;;;;;;;1.65;1.40;;;;;;;14.45;52.69;98949.53;4972679;28;20029;-77
2023/03/26 05:41:36;;;;;;;2.40;1.42;;;;;;;14.40;52.61;98922.78;4972713;28;20027;-77
2023/03/26 05:44:02;;;;;;;2.45;1.65;;;;;;;14.27;52.62;98921.06;4972607;28;20105;-78
2023/03/26 05:46:28;;;;;;;2.30;2.10;;;;;;;14.83;52.51;98999.88;4972626;28;20054;-77
2023/03/26 05:48:53;;;;;;;3.15;1.70;;;;;;;14.37;52.47;98947.13;4972268;28;20078;-77
2023/03/26 05:51:19;;;;;;;2.58;1.35;;;;;;;14.66;52.28;98988.19;4972356;28;20019;-77
2023/03/26 05:53:45;;;;;;;2.13;1.48;;;;;;;14.59;51.90;98968.81;4972299;28;20534;-78
2023/03/26 05:56:11;;;;;;;2.05;1.70;;;;;;;14.49;52.23;98957.88;4975244;28;20113;-78
2023/03/26 05:58:37;;;;;;;1.40;1.30;;;;;;;14.41;51.69;98942.19;4976223;28;20030;-77
2023/03/26 06:01:08;;;;;;;1.33;1.20;;;;;;;14.96;51.94;99006.94;4990807;28;20043;-77
2023/03/26 06:03:36;;;;;;;3.17;1.60;;;;;;;14.93;52.20;99013.50;5007443;28;20030;-77
2023/03/26 06:06:05;;;;;;;3.38;1.50;;;;;;;14.42;51.93;98914.59;5007325;28;20054;-77
2023/03/26 06:08:31;;;;;;;1.55;1.35;;;;;;;14.69;51.75;98985.09;4976270;28;20114;-77
2023/03/26 06:11:01;;;;;;;2.15;1.48;;;;;;;14.90;51.62;99005.16;4976156;28;20528;-77
2023/03/26 06:13:27;;;;;;;1.73;1.50;;;;;;;14.86;52.05;99027.88;4976173;28;20034;-77
2023/03/26 06:15:53;;;;;;;1.77;1.60;;;;;;;14.57;51.67;98974.34;4976144;28;20035;-77
2023/03/26 06:18:19;;;;;;;4.97;1.95;;;;;;;14.69;51.62;99006.34;4975960;28;20034;-78
2023/03/26 06:20:45;;;;;;;2.38;2.00;;;;;;;14.18;51.92;98940.94;4975843;28;20031;-77
2023/03/26 06:23:10;;;;;;;2.08;1.80;;;;;;;14.35;51.91;98975.75;4975841;28;20554;-77
2023/03/26 06:25:36;;;;;;;3.80;1.73;;;;;;;14.20;51.92;98956.66;4975637;28;20412;-77
2023/03/26 06:28:02;;;;;;;2.58;1.77;;;;;;;14.66;51.94;99028.03;4975533;28;20027;-77
2023/03/26 06:30:28;;;;;;;3.85;3.38;;;;;;;14.34;52.25;98986.56;4990362;28;20074;-77
2023/03/26 06:32:53;;;;;;;2.35;1.75;;;;;;;14.65;51.96;99036.22;4975731;28;20113;-77
2023/03/26 06:35:19;;;;;;;2.90;1.70;;;;;;;14.67;52.28;99039.47;4975476;28;20113;-78
2023/03/26 06:37:45;;;;;;;3.65;2.15;;;;;;;14.59;52.32;99040.56;4990374;28;20110;-77
2023/03/26 06:40:10;;;;;;;3.63;2.00;;;;;;;13.98;52.26;98946.34;5006456;28;20069;-77
2023/03/26 06:42:36;;;;;;;2.20;1.80;;;;;;;14.76;52.16;99054.13;4975730;28;20069;-77
2023/03/26 06:45:01;;;;;;;2.45;1.90;;;;;;;14.39;52.04;99005.34;4975347;28;20027;-77
2023/03/26 06:47:27;;;;;;;2.08;1.75;;;;;;;14.30;51.91;98975.56;4975252;28;20423;-78
2023/03/26 06:49:52;;;;;;;2.05;1.85;;;;;;;14.46;52.32;98998.97;5006512;28;20026;-77
2023/03/26 06:52:18;;;;;;;1.92;1.60;;;;;;;14.53;51.84;99025.47;4975303;28;20023;-77
2023/03/26 06:54:43;;;;;;;1.70;1.60;;;;;;;14.31;52.18;98963.91;4975289;28;20110;-77
2023/03/26 06:57:09;;;;;;;2.38;1.80;;;;;;;14.85;52.10;99028.91;4975123;28;20034;-77
2023/03/26 06:59:34;;;;;;;3.28;1.98;;;;;;;14.37;51.86;98960.41;4975031;28;20520;-77
2023/03/26 07:01:59;;;;;;;1.92;1.58;;;;;;;14.60;51.31;98997.03;4975317;28;20053;-78
2023/03/26 07:04:25;;;;;;;1.83;1.45;;;;;;;14.87;51.34;99022.38;4975147;28;20085;-78
2023/03/26 07:06:50;;;;;;;2.60;1.50;;;;;;;14.77;51.35;99007.91;4974297;28;20022;-77
2023/03/26 07:09:16;;;;;;;1.40;1.20;;;;;;;15.08;51.17;99052.22;4974858;28;20027;-77
2023/03/26 07:11:41;;;;;;;1.98;1.42;;;;;;;15.14;50.33;99068.13;4974884;28;20102;-77
2023/03/26 07:14:06;;;;;;;2.72;1.50;;;;;;;15.13;50.51;99031.94;4974801;28;20030;-77
2023/03/26 07:16:32;;;;;;;2.08;1.40;;;;;;;14.92;50.56;98997.78;4974751;28;20050;-78
2023/03/26 07:18:57;;;;;;;1.70;1.30;;;;;;;15.21;50.34;99039.63;4974633;28;20026;-78
2023/03/26 07:21:23;;;;;;;1.67;1.30;;;;;;;15.36;50.67;99041.91;4974608;28;20491;-77
2023/03/26 07:23:49;;;;;;;3.00;1.25;;;;;;;15.42;50.03;99035.72;4974693;28;20050;-78
2023/03/26 07:26:26;;;;;;;1.95;1.40;;;;;;;15.65;49.36;99064.38;4974568;28;20019;-78
2023/03/26 07:29:03;;;;;;;4.70;1.20;;;;;;;15.30;48.75;98996.78;4974635;28;20023;-78
2023/03/26 07:31:35;;;;;;;3.03;1.40;;;;;;;15.79;48.55;99068.50;4974446;28;20026;-78
2023/03/26 07:34:35;;;;;;;1.67;1.20;;;;;;;15.75;47.07;99053.22;4974503;28;20022;-77
2023/03/26 07:37:11;;;;;;;1.17;1.08;;;;;;;15.90;47.29;99088.25;4973484;28;20035;-77
2023/03/26 07:40:20;;;;;;;2.67;1.30;;;;;;;15.98;47.54;99089.78;4974427;28;20029;-77
2023/03/26 07:43:00;;;;;;;1.40;1.25;;;;;;;15.85;47.36;99066.81;4974697;28;20417;-78
2023/03/26 07:45:38;;;;;;;1.83;1.40;;;;;;;16.14;46.99;99083.84;4974297;28;20018;-77
2023/03/26 07:48:19;;;;;;;1.60;1.50;;;;;;;15.83;46.79;99019.09;4974163;28;20105;-78
2023/03/26 07:50:46;;;;;;;2.10;1.25;;;;;;;16.15;46.16;99090.78;5005452;28;20483;-77
2023/03/26 07:53:12;;;;;;;1.98;1.30;;;;;;;16.27;46.53;99088.19;4974024;28;20054;-77
2023/03/26 07:55:56;;;;;;;2.45;1.80;;;;;;;15.85;46.07;99037.53;4974242;28;20061;-78
2023/03/26 07:58:45;;;;;;;2.83;1.65;;;;;;;16.13;45.90;99076.88;4974109;28;20030;-78
2023/03/26 08:01:37;;;;;;;2.28;1.80;;;;;;;15.95;46.41;99051.09;4973825;28;20042;-78
2023/03/26 08:04:36;;;;;;;2.45;1.90;;;;;;;16.33;45.61;99095.25;4970448;28;20038;-78
2023/03/26 08:07:10;;;;;;;2.17;1.70;;;;;;;16.23;46.41;99071.03;4973900;28;20030;-78
2023/03/26 08:10:11;;;;;;;2.70;1.48;;;;;;;16.25;45.90;99059.09;4973886;28;20109;-77
2023/03/26 08:12:49;;;;;;;2.37;1.50;;;;;;;15.91;45.58;99003.84;5005111;28;20023;-78
2023/03/26 08:15:31;;;;;;;1.90;1.70;;;;;;;16.59;44.93;99091.44;4973963;28;20274;-78
2023/03/26 08:18:26;;;;;;;1.50;1.40;;;;;;;16.68;43.89;99088.25;4973260;28;20027;-77
2023/03/26 08:21:05;;;;;;;1.38;1.20;;;;;;;16.70;44.31;99088.03;4973593;28;20110;-78
2023/03/26 08:23:57;;;;;;;15.13;1.38;;;;;;;16.80;43.86;99082.94;4973568;28;20081;-78
2023/03/26 08:26:57;;;;;;;2.03;1.52;;;;;;;16.93;43.63;99071.25;4973639;28;20019;-77
2023/03/26 08:29:43;;;;;;;1.73;1.55;;;;;;;17.03;43.32;99071.47;5004814;28;20030;-77
2023/03/26 08:32:14;;;;;;;2.65;1.48;;;;;;;17.08;43.24;99060.94;4973395;28;20034;-78
2023/03/26 08:34:39;;;;;;;5.07;2.28;;;;;;;17.08;43.18;99067.06;4973449;28;20114;-77
2023/03/26 08:37:05;;;;;;;2.45;1.80;;;;;;;17.10;42.82;99061.53;4988222;28;20054;-78
2023/03/26 08:39:30;;;;;;;2.97;2.10;;;;;;;16.69;42.29;99007.22;4973280;28;20027;-78
2023/03/26 08:42:18;;;;;;;3.05;1.83;;;;;;;17.32;41.54;99049.22;4973408;28;20027;-78
2023/03/26 08:45:05;;;;;;;2.63;1.80;;;;;;;17.40;41.25;99045.41;4973306;28;20445;-78
2023/03/26 08:48:07;;;;;;;3.47;1.58;;;;;;;17.45;41.75;99048.97;5014336;28;20038;-77
2023/03/26 08:51:03;;;;;;;3.05;1.50;;;;;;;17.65;41.00;99055.78;4980321;28;20519;-77
2023/03/26 08:53:48;;;;;;;2.25;1.45;;;;;;;17.51;39.54;99011.72;4973177;28;20085;-77
2023/03/26 08:56:28;;;;;;;2.92;1.52;;;;;;;17.83;39.31;99044.16;5004622;28;20029;-78
2023/03/26 08:59:15;;;;;;;1.80;1.50;;;;;;;17.88;39.19;99031.75;4973272;28;20019;-78
2023/03/26 09:01:59;;;;;;;2.63;1.70;;;;;;;17.98;39.24;99047.16;4973160;28;20049;-78
2023/03/26 09:04:39;;;;;;;3.88;1.65;;;;;;;18.01;38.14;99030.66;4972772;28;20034;-78
2023/03/26 09:07:29;;;;;;;2.30;1.50;;;;;;;18.22;37.77;99023.81;4972874;28;20492;-78
2023/03/26 09:10:13;;;;;;;3.00;1.75;;;;;;;18.21;37.73;99031.03;5004176;28;20030;-78
2023/03/26 09:13:08;;;;;;;1.88;1.42;;;;;;;18.34;37.07;99036.06;4972802;28;20085;-78
2023/03/26 09:15:47;;;;;;;5.40;1.80;;;;;;;17.51;36.26;98872.94;4972919;28;20414;-78
2023/03/26 09:18:50;;;;;;;2.40;1.40;;;;;;;18.64;37.16;99030.50;5003865;28;20125;-78
2023/03/26 09:21:37;;;;;;;2.88;1.70;;;;;;;18.76;35.94;99026.94;4972485;28;20039;-78
2023/03/26 09:24:30;;;;;;;1.20;1.10;;;;;;;18.79;35.00;99048.66;4972755;28;20034;-78
2023/03/26 09:27:15;;;;;;;1.30;1.20;;;;;;;18.71;34.88;98991.03;4972628;28;20027;-78
2023/03/26 09:30:11;;;;;;;4.18;1.38;;;;;;;18.77;34.89;98943.78;4972316;28;20539;-78
2023/03/26 09:33:17;;;;;;;1.88;1.35;;;;;;;19.10;34.66;98999.06;4972554;28;20110;-78
2023/03/26 09:35:53;;;;;;;2.05;1.65;;;;;;;19.48;33.98;99021.56;4951422;29;20035;-78
2023/03/26 09:38:37;;;;;;;1.70;1.13;;;;;;;19.44;34.07;99023.09;4951145;29;20560;-78
2023/03/26 09:41:33;;;;;;;1.27;1.17;;;;;;;19.34;33.50;99013.06;4965641;28;20078;-78
2023/03/26 09:44:07;;;;;;;1.30;1.20;;;;;;;19.64;32.76;99023.38;4973767;28;20038;-78
2023/03/26 09:46:54;;;;;;;1.42;1.33;;;;;;;19.86;32.48;99032.22;4972523;28;20030;-78
2023/03/26 09:49:45;;;;;;;3.45;1.40;;;;;;;20.07;31.90;99044.00;4972395;28;20082;-78
2023/03/26 09:52:42;;;;;;;3.70;1.20;;;;;;;19.93;32.29;99010.59;4972194;28;20050;-78
2023/03/26 09:55:27;;;;;;;2.40;1.20;;;;;;;20.51;31.75;99047.41;4970871;28;20055;-78
2023/03/26 09:58:18;;;;;;;3.70;1.40;;;;;;;20.27;30.30;99009.34;4972122;28;20038;-78
2023/03/26 10:01:13;;;;;;;2.17;0.90;;;;;;;20.50;31.61;99042.31;4971929;28;20055;-78
2023/03/26 10:03:48;;;;;;;1.95;1.20;;;;;;;20.59;30.32;99040.78;4962715;28;20302;-78
2023/03/26 10:06:19;;;;;;;2.83;1.05;;;;;;;20.58;30.92;99039.97;4972699;28;20061;-78
2023/03/26 10:09:17;;;;;;;1.25;0.90;;;;;;;20.72;30.50;99061.81;4972428;28;20061;-78
2023/03/26 10:11:59;;;;;;;1.83;1.45;;;;;;;20.28;30.65;98983.34;4972222;28;20105;-78
2023/03/26 10:14:58;;;;;;;1.90;1.10;;;;;;;20.89;29.95;99027.63;4972367;28;20033;-77
2023/03/26 10:17:26;;;;;;;1.45;1.02;;;;;;;21.02;30.15;99028.25;4972366;28;20485;-77
2023/03/26 10:20:08;;;;;;;1.10;1.00;;;;;;;21.09;29.70;99028.81;5003249;28;20065;-77
2023/03/26 10:23:07;;;;;;;1.15;1.02;;;;;;;21.06;27.57;99005.19;5003241;28;20439;-77
2023/03/26 10:25:35;;;;;;;1.30;0.93;;;;;;;21.43;28.56;99035.50;4972065;28;20031;-77
2023/03/26 10:28:25;;;;;;;1.30;1.05;;;;;;;21.43;27.50;99018.56;4972121;28;20019;-77
2023/03/26 10:31:04;;;;;;;2.60;1.30;;;;;;;21.10;27.42;98992.88;4972483;28;20460;-77
2023/03/26 10:33:57;;;;;;;3.10;1.00;;;;;;;21.56;27.52;99018.13;4971965;28;20015;-77
2023/03/26 10:36:28;;;;;;;2.53;1.02;;;;;;;21.77;27.63;99027.88;5000599;28;20027;-77
2023/03/26 10:39:14;;;;;;;2.60;1.25;;;;;;;21.82;27.46;99011.78;4967200;28;20039;-77
2023/03/26 10:42:06;;;;;;;1.15;1.00;;;;;;;22.16;27.22;99005.97;4998703;28;20031;-77
2023/03/26 10:44:46;;;;;;;1.00;0.90;;;;;;;22.38;26.74;99011.13;4966209;28;20033;-77
2023/03/26 10:47:32;;;;;;;3.45;1.13;;;;;;;22.48;25.31;98995.00;5004994;28;20065;-77
2023/03/26 10:50:20;;;;;;;1.83;1.00;;;;;;;22.91;26.07;98996.34;4973998;28;20030;-77
2023/03/26 10:53:00;;;;;;;1.27;1.00;;;;;;;22.63;25.56;98932.28;5002757;28;20479;-77
2023/03/26 10:55:44;;;;;;;2.47;1.20;;;;;;;22.96;25.69;98960.53;4970059;28;20393;-77
2023/03/26 10:58:30;;;;;;;1.75;0.88;;;;;;;23.14;25.44;98979.63;5001316;28;20029;-77
2023/03/26 11:01:02;;;;;;;1.15;1.00;;;;;;;22.77;25.18;98898.34;4973792;28;20572;-76
2023/03/26 11:03:45;;;;;;;5.22;1.63;;;;;;;23.30;23.91;98983.06;4975004;28;20073;-77
2023/03/26 11:06:32;;;;;;;1.20;1.10;;;;;;;23.37;24.74;98982.78;4975117;28;20063;-76
2023/03/26 11:08:57;;;;;;;3.25;1.13;;;;;;;23.30;24.93;98964.22;4975058;28;20114;-77
2023/03/26 11:11:30;;;;;;;1.63;1.10;;;;;;;23.34;24.53;98965.28;4973790;28;20043;-77
2023/03/26 11:14:24;;;;;;;1.20;0.85;;;;;;;23.31;23.69;98963.13;4974593;28;20412;-77
2023/03/26 11:17:15;;;;;;;1.00;0.90;;;;;;;23.58;23.60;98949.28;4974627;28;20031;-77
2023/03/26 11:20:14;;;;;;;1.00;1.00;;;;;;;23.91;22.86;98952.38;4955317;29;20123;-76
2023/03/26 11:22:52;;;;;;;1.17;0.80;;;;;;;23.85;23.62;98954.28;4955547;28;20038;-77
2023/03/26 11:25:29;;;;;;;2.53;1.20;;;;;;;23.77;21.90;98944.06;4970350;28;20031;-77
2023/03/26 11:28:14;;;;;;;0.88;0.88;;;;;;;23.76;23.43;98943.25;4955515;28;20114;-77
2023/03/26 11:30:42;;;;;;;2.78;1.10;;;;;;;23.99;23.46;98949.09;4955490;29;20024;-77
2023/03/26 11:33:20;;;;;;;1.50;0.95;;;;;;;24.12;23.11;98944.94;4954666;29;20031;-77
2023/03/26 11:35:49;;;;;;;1.90;1.00;;;;;;;23.57;22.96;98856.06;4955003;28;20035;-77
2023/03/26 11:38:22;;;;;;;1.58;1.05;;;;;;;24.09;23.31;98938.22;4953880;28;20518;-77
2023/03/26 11:40:52;;;;;;;1.40;1.13;;;;;;;23.60;23.09;98854.69;4955278;29;20180;-78
2023/03/26 11:43:25;;;;;;;1.40;1.00;;;;;;;23.91;23.26;98936.19;4955144;28;20059;-77
2023/03/26 11:45:52;;;;;;;1.73;1.02;;;;;;;23.95;23.29;98907.59;4954962;28;20166;-77
2023/03/26 11:48:24;;;;;;;2.42;1.08;;;;;;;23.97;23.00;98898.13;4961801;28;20030;-77
2023/03/26 11:51:06;;;;;;;2.58;0.85;;;;;;;23.64;23.27;98864.63;4971822;28;20027;-77
2023/03/26 11:53:37;;;;;;;1.98;0.80;;;;;;;23.78;23.09;98848.63;4971805;28;20023;-77
2023/03/26 11:56:03;;;;;;;0.95;0.73;;;;;;;24.22;22.85;98917.91;4973589;28;20030;-77